createdAt,value
2023-05-08T00:02:17.601Z,3.97
2023-05-08T00:04:45.437Z,4.05
2023-05-08T00:07:13.252Z,3.83
2023-05-08T00:09:42.426Z,4.45
2023-05-08T00:12:10.260Z,3.80
2023-05-08T00:14:38.300Z,3.72
2023-05-08T00:17:06.201Z,4.95
2023-05-08T00:19:34.068Z,4.60
2023-05-08T00:22:01.842Z,4.85
2023-05-08T00:24:29.657Z,3.90
2023-05-08T00:26:58.795Z,4.65
2023-05-08T00:29:26.794Z,4.60
2023-05-08T00:31:54.790Z,4.03
2023-05-08T00:34:23.021Z,4.03
2023-05-08T00:36:50.764Z,4.57
2023-05-08T00:39:18.581Z,4.60
2023-05-08T00:41:46.758Z,4.47
2023-05-08T00:44:16.116Z,4.35
2023-05-08T00:46:45.686Z,4.18
2023-05-08T00:49:14.610Z,4.40
2023-05-08T00:51:43.382Z,4.28
2023-05-08T00:54:12.194Z,5.55
2023-05-08T00:56:40.206Z,5.35
2023-05-08T00:59:13.018Z,5.18
2023-05-08T01:01:42.595Z,5.28
2023-05-08T01:04:11.006Z,5.07
2023-05-08T01:06:38.931Z,4.95
2023-05-08T01:09:07.803Z,4.80
2023-05-08T01:11:42.527Z,4.75
2023-05-08T01:14:17.618Z,4.55
2023-05-08T01:16:57.276Z,4.53
2023-05-08T01:19:54.216Z,4.35
2023-05-08T01:22:35.140Z,3.78
2023-05-08T01:25:41.689Z,4.30
2023-05-08T01:28:31.592Z,4.22
2023-05-08T01:31:06.702Z,4.40
2023-05-08T01:33:42.282Z,5.55
2023-05-08T01:36:21.811Z,5.17
2023-05-08T01:38:57.228Z,4.70
2023-05-08T01:41:28.744Z,3.67
2023-05-08T01:44:07.267Z,4.50
2023-05-08T01:46:35.186Z,4.18
2023-05-08T01:49:10.668Z,4.20
2023-05-08T01:51:50.196Z,4.00
2023-05-08T01:54:21.350Z,3.55
2023-05-08T01:56:51.515Z,4.13
2023-05-08T01:59:23.205Z,4.05
2023-05-08T02:01:55.167Z,3.83
2023-05-08T02:04:25.138Z,4.10
2023-05-08T02:06:54.644Z,4.00
2023-05-08T02:09:24.984Z,4.28
2023-05-08T02:11:54.475Z,4.63
2023-05-08T02:14:23.733Z,4.55
2023-05-08T02:16:53.770Z,3.70
2023-05-08T02:19:26.024Z,5.05
2023-05-08T02:21:56.208Z,4.07
2023-05-08T02:24:25.871Z,4.22
2023-05-08T02:26:54.713Z,4.10
2023-05-08T02:29:24.184Z,4.38
2023-05-08T02:31:54.558Z,4.53
2023-05-08T02:34:24.703Z,4.47
2023-05-08T02:36:54.526Z,3.90
2023-05-08T02:39:26.077Z,3.88
2023-05-08T02:41:53.926Z,4.93
2023-05-08T02:44:21.937Z,4.45
2023-05-08T02:46:57.316Z,4.18
2023-05-08T02:49:33.128Z,4.18
2023-05-08T02:52:07.249Z,4.13
2023-05-08T02:54:43.399Z,4.47
2023-05-08T02:57:19.830Z,4.55
2023-05-08T02:59:58.054Z,4.40
2023-05-08T03:02:33.439Z,4.55
2023-05-08T03:05:08.041Z,4.32
2023-05-08T03:07:39.980Z,4.82
2023-05-08T03:10:13.097Z,4.95
2023-05-08T03:12:44.525Z,4.10
2023-05-08T03:15:24.072Z,4.28
2023-05-08T03:17:55.959Z,4.28
2023-05-08T03:20:28.201Z,4.18
2023-05-08T03:22:57.160Z,4.63
2023-05-08T03:25:26.114Z,4.85
2023-05-08T03:27:54.939Z,4.75
2023-05-08T03:30:23.470Z,4.88
2023-05-08T03:32:53.846Z,5.32
2023-05-08T03:35:23.784Z,4.93
2023-05-08T03:37:53.909Z,4.95
2023-05-08T03:40:21.742Z,4.85
2023-05-08T03:42:51.105Z,5.15
2023-05-08T03:45:20.696Z,5.10
2023-05-08T03:47:49.445Z,5.20
2023-05-08T03:50:17.527Z,5.07
2023-05-08T03:52:45.390Z,5.35
2023-05-08T03:55:14.540Z,5.88
2023-05-08T03:57:51.417Z,5.00
2023-05-08T04:00:30.236Z,5.55
2023-05-08T04:03:10.061Z,5.32
2023-05-08T04:05:42.153Z,5.20
2023-05-08T04:08:17.421Z,5.88
2023-05-08T04:10:51.041Z,5.68
2023-05-08T04:13:24.759Z,6.22
2023-05-08T04:15:55.132Z,5.13
2023-05-08T04:18:29.363Z,5.75
2023-05-08T04:20:59.197Z,5.40
2023-05-08T04:23:29.692Z,5.63
2023-05-08T04:26:01.176Z,5.88
2023-05-08T04:28:29.485Z,6.00
2023-05-08T04:30:58.557Z,6.18
2023-05-08T04:33:26.586Z,6.25
2023-05-08T04:35:55.318Z,6.45
2023-05-08T04:38:23.219Z,6.50
2023-05-08T04:40:51.150Z,6.18
2023-05-08T04:43:20.452Z,6.55
2023-05-08T04:45:48.307Z,7.45
2023-05-08T04:48:16.384Z,6.30
2023-05-08T04:50:44.453Z,6.22
2023-05-08T04:53:12.307Z,5.50
2023-05-08T04:55:40.194Z,5.97
2023-05-08T04:58:08.032Z,6.25
2023-05-08T05:00:37.541Z,6.47
2023-05-08T05:03:05.413Z,5.55
2023-05-08T05:05:33.410Z,5.60
2023-05-08T05:08:01.272Z,5.93
2023-05-08T05:10:29.215Z,5.88
2023-05-08T05:12:57.093Z,5.80
2023-05-08T05:15:24.915Z,6.60
2023-05-08T05:17:54.243Z,6.63
2023-05-08T05:20:22.109Z,6.28
2023-05-08T05:22:49.850Z,5.57
2023-05-08T05:25:17.801Z,6.13
2023-05-08T05:27:45.613Z,6.03
2023-05-08T05:30:14.015Z,6.07
2023-05-08T05:32:42.288Z,6.60
2023-05-08T05:35:12.408Z,5.22
2023-05-08T05:37:40.545Z,5.88
2023-05-08T05:40:09.507Z,5.68
2023-05-08T05:42:37.720Z,6.07
2023-05-08T05:45:06.337Z,5.88
2023-05-08T05:47:34.205Z,5.75
2023-05-08T05:50:02.022Z,6.47
2023-05-08T05:52:31.618Z,6.20
2023-05-08T05:54:59.422Z,6.10
2023-05-08T05:57:27.395Z,5.82
2023-05-08T05:59:55.137Z,6.35
2023-05-08T06:02:23.246Z,6.03
2023-05-08T06:04:52.466Z,5.90
2023-05-08T06:07:21.097Z,6.68
2023-05-08T06:09:51.235Z,5.70
2023-05-08T06:12:19.317Z,6.38
2023-05-08T06:14:47.195Z,10.02
2023-05-08T06:17:15.064Z,13.30
2023-05-08T06:19:42.902Z,9.55
2023-05-08T06:22:10.691Z,9.38
2023-05-08T06:24:38.517Z,10.15
2023-05-08T06:27:07.629Z,10.32
2023-05-08T06:29:35.610Z,9.63
2023-05-08T06:32:03.398Z,10.20
2023-05-08T06:34:31.568Z,9.98
2023-05-08T06:36:59.404Z,9.65
2023-05-08T06:39:27.397Z,9.32
2023-05-08T06:41:55.189Z,9.43
2023-05-08T06:44:24.323Z,10.13
2023-05-08T06:46:52.131Z,10.23
2023-05-08T06:49:20.538Z,10.77
2023-05-08T06:51:48.483Z,11.30
2023-05-08T06:54:16.313Z,10.98
2023-05-08T06:56:44.241Z,10.63
2023-05-08T06:59:12.294Z,10.77
2023-05-08T07:01:41.790Z,10.02
2023-05-08T07:04:09.728Z,10.95
2023-05-08T07:06:37.568Z,10.82
2023-05-08T07:09:05.548Z,12.40
2023-05-08T07:11:33.370Z,13.50
2023-05-08T07:14:01.260Z,12.65
2023-05-08T07:16:29.448Z,13.38
2023-05-08T07:18:58.684Z,14.77
2023-05-08T07:21:26.804Z,14.50
2023-05-08T07:23:54.929Z,15.15
2023-05-08T07:26:22.890Z,14.50
2023-05-08T07:28:53.852Z,13.95
2023-05-08T07:31:21.890Z,15.90
2023-05-08T07:33:49.831Z,14.15
2023-05-08T07:36:18.932Z,14.35
2023-05-08T07:38:46.766Z,15.25
2023-05-08T07:41:14.614Z,14.82
2023-05-08T07:43:43.656Z,13.93
2023-05-08T07:46:17.955Z,14.90
2023-05-08T07:48:45.822Z,13.85
2023-05-08T07:51:14.410Z,14.20
2023-05-08T07:53:43.669Z,13.07
2023-05-08T07:56:11.469Z,14.82
2023-05-08T07:58:39.474Z,15.23
2023-05-08T08:01:07.315Z,14.45
2023-05-08T08:03:35.276Z,14.95
2023-05-08T08:06:03.180Z,14.38
2023-05-08T08:08:31.090Z,14.10
2023-05-08T08:11:01.720Z,17.38
2023-05-08T08:13:31.757Z,15.23
2023-05-08T08:15:59.794Z,15.25
2023-05-08T08:18:27.623Z,15.43
2023-05-08T08:20:55.423Z,13.55
2023-05-08T08:23:23.214Z,15.13
2023-05-08T08:25:51.498Z,16.02
2023-05-08T08:28:20.747Z,13.73
2023-05-08T08:30:48.608Z,15.70
2023-05-08T08:33:18.289Z,15.85
2023-05-08T08:35:46.898Z,16.42
2023-05-08T08:38:14.723Z,14.60
2023-05-08T08:40:43.590Z,15.55
2023-05-08T08:43:11.460Z,17.40
2023-05-08T08:45:40.762Z,16.95
2023-05-08T08:48:12.480Z,15.82
2023-05-08T08:50:44.019Z,15.20
2023-05-08T08:53:17.049Z,18.15
2023-05-08T08:55:48.195Z,18.05
2023-05-08T08:58:22.947Z,17.58
2023-05-08T09:00:54.840Z,16.90
2023-05-08T09:03:23.116Z,13.80
2023-05-08T09:05:51.167Z,17.02
2023-05-08T09:08:19.803Z,23.48
2023-05-08T09:10:48.182Z,22.48
2023-05-08T09:13:17.343Z,21.63
2023-05-08T09:15:46.906Z,20.23
2023-05-08T09:18:16.042Z,18.50
2023-05-08T09:20:45.580Z,18.33
2023-05-08T09:23:14.805Z,17.73
2023-05-08T09:25:43.745Z,16.33
2023-05-08T09:28:18.432Z,15.10
2023-05-08T09:30:53.952Z,14.63
2023-05-08T09:33:26.228Z,12.02
2023-05-08T09:35:54.366Z,11.75
2023-05-08T09:38:36.368Z,15.25
2023-05-08T09:41:09.255Z,17.65
2023-05-08T09:43:37.492Z,19.85
2023-05-08T09:46:23.163Z,17.58
2023-05-08T09:48:53.899Z,18.88
2023-05-08T09:51:21.985Z,17.70
2023-05-08T09:53:52.800Z,15.60
2023-05-08T09:56:36.587Z,14.10
2023-05-08T09:59:06.720Z,14.15
2023-05-08T10:01:36.561Z,16.10
2023-05-08T10:04:06.460Z,14.38
2023-05-08T10:06:36.362Z,16.50
2023-05-08T10:09:21.885Z,16.50
2023-05-08T10:11:53.120Z,17.25
2023-05-08T10:14:22.815Z,18.85
2023-05-08T10:16:52.910Z,22.02
2023-05-08T10:19:23.493Z,21.10
2023-05-08T10:21:52.775Z,20.83
2023-05-08T10:24:22.077Z,19.63
2023-05-08T10:27:06.867Z,20.63
2023-05-08T10:29:42.577Z,19.33
2023-05-08T10:32:11.573Z,17.70
2023-05-08T10:34:42.726Z,20.63
2023-05-08T10:37:11.345Z,22.67
2023-05-08T10:39:41.448Z,21.00
2023-05-08T10:42:09.570Z,22.30
2023-05-08T10:44:38.185Z,23.50
2023-05-08T10:47:16.220Z,26.25
2023-05-08T10:49:52.791Z,25.52
2023-05-08T10:55:19.892Z,25.48
2023-05-08T10:58:30.731Z,25.73
2023-05-08T11:01:16.117Z,26.83
2023-05-08T11:03:50.666Z,26.27
2023-05-08T11:06:44.357Z,24.27
2023-05-08T11:09:16.904Z,25.05
2023-05-08T11:11:55.892Z,23.33
2023-05-08T11:14:24.907Z,24.35
2023-05-08T11:17:09.101Z,25.38
2023-05-08T11:19:39.045Z,23.60
2023-05-08T11:22:24.857Z,23.35
2023-05-08T11:25:05.079Z,23.25
2023-05-08T11:27:38.204Z,19.23
2023-05-08T11:30:24.528Z,20.52
2023-05-08T11:33:00.261Z,22.05
2023-05-08T11:35:53.036Z,21.00
2023-05-08T11:38:41.013Z,22.25
2023-05-08T11:41:09.821Z,23.38
2023-05-08T11:44:20.632Z,19.52
2023-05-08T11:46:53.845Z,16.70
2023-05-08T11:49:27.397Z,18.52
2023-05-08T11:52:00.347Z,19.10
2023-05-08T11:54:31.598Z,20.02
2023-05-08T11:56:59.694Z,18.75
2023-05-08T11:59:27.784Z,18.67
2023-05-08T12:04:26.428Z,21.40
2023-05-08T12:06:59.723Z,26.23
2023-05-08T12:09:29.020Z,23.67
2023-05-08T12:11:59.971Z,20.65
2023-05-08T12:14:28.045Z,20.55
2023-05-08T12:16:55.962Z,16.02
2023-05-08T12:19:23.830Z,17.10
2023-05-08T12:21:51.653Z,18.30
2023-05-08T12:24:23.247Z,16.15
2023-05-08T12:26:55.592Z,17.80
2023-05-08T12:29:23.787Z,16.67
2023-05-08T12:31:52.240Z,17.13
2023-05-08T12:34:20.770Z,16.30
2023-05-08T12:36:48.693Z,16.10
2023-05-08T12:39:18.232Z,15.05
2023-05-08T12:41:49.879Z,15.45
2023-05-08T12:44:25.028Z,15.77
2023-05-08T12:46:53.927Z,13.82
2023-05-08T12:49:26.287Z,12.93
2023-05-08T12:52:02.382Z,12.43
2023-05-08T12:54:34.321Z,11.43
2023-05-08T12:57:02.075Z,12.07
2023-05-08T12:59:33.282Z,10.75
2023-05-08T13:02:01.113Z,11.82
2023-05-08T13:04:29.214Z,11.52
2023-05-08T13:06:57.537Z,11.73
2023-05-08T13:09:25.412Z,11.65
2023-05-08T13:11:53.166Z,12.68
2023-05-08T13:14:21.014Z,11.13
2023-05-08T13:16:51.805Z,10.77
2023-05-08T13:19:20.048Z,10.25
2023-05-08T13:21:47.905Z,10.30
2023-05-08T13:24:16.032Z,10.68
2023-05-08T13:26:44.153Z,13.82
2023-05-08T13:29:11.982Z,13.95
2023-05-08T13:31:39.844Z,12.45
2023-05-08T13:34:10.069Z,11.82
2023-05-08T13:36:37.978Z,10.18
2023-05-08T13:39:06.560Z,13.35
2023-05-08T13:41:34.372Z,12.75
2023-05-08T13:44:02.180Z,13.50
2023-05-08T13:46:30.072Z,12.07
2023-05-08T13:48:57.872Z,12.25
2023-05-08T13:51:27.226Z,13.27
2023-05-08T13:53:55.013Z,13.82
2023-05-08T13:56:22.868Z,13.73
2023-05-08T13:58:50.727Z,15.82
2023-05-08T14:01:26.653Z,16.00
2023-05-08T14:06:23.417Z,14.27
2023-05-08T14:08:54.631Z,19.58
2023-05-08T14:11:24.906Z,12.60
2023-05-08T14:13:52.761Z,14.57
2023-05-08T14:16:20.603Z,17.65
2023-05-08T14:18:48.749Z,16.48
2023-05-08T14:21:16.618Z,17.65
2023-05-08T14:23:45.107Z,16.52
2023-05-08T14:26:14.292Z,19.80
2023-05-08T14:28:42.114Z,17.40
2023-05-08T14:31:10.045Z,17.95
2023-05-08T14:33:37.888Z,16.00
2023-05-08T14:36:06.064Z,16.33
2023-05-08T14:38:33.898Z,16.98
2023-05-08T14:41:04.270Z,15.35
2023-05-08T14:43:34.343Z,15.20
2023-05-08T14:46:02.325Z,16.27
2023-05-08T14:48:30.239Z,16.83
2023-05-08T14:50:58.627Z,15.70
2023-05-08T14:53:26.770Z,14.68
2023-05-08T14:55:55.066Z,15.98
2023-05-08T14:58:23.555Z,16.40
2023-05-08T15:00:52.779Z,17.80
2023-05-08T15:03:20.698Z,20.48
2023-05-08T15:05:48.567Z,18.05
2023-05-08T15:08:16.664Z,19.73
2023-05-08T15:10:44.647Z,17.33
2023-05-08T15:13:12.569Z,19.98
2023-05-08T15:15:40.476Z,17.42
2023-05-08T15:18:09.666Z,16.27
2023-05-08T15:20:37.566Z,15.82
2023-05-08T15:23:05.641Z,17.30
2023-05-08T15:25:33.459Z,18.20
2023-05-08T15:28:01.490Z,19.05
2023-05-08T15:30:29.332Z,20.02
2023-05-08T15:32:57.234Z,16.13
2023-05-08T15:35:26.697Z,16.25
2023-05-08T15:37:55.248Z,17.65
2023-05-08T15:40:23.174Z,16.63
2023-05-08T15:42:50.954Z,15.48
2023-05-08T15:45:18.806Z,15.10
2023-05-08T15:47:46.937Z,14.43
2023-05-08T15:50:15.687Z,16.20
2023-05-08T15:52:44.907Z,14.52
2023-05-08T15:55:13.246Z,16.33
2023-05-08T15:57:41.265Z,17.63
2023-05-08T16:00:10.325Z,14.75
2023-05-08T16:02:38.144Z,15.70
2023-05-08T16:05:06.527Z,15.30
2023-05-08T16:07:34.321Z,14.07
2023-05-08T16:10:05.340Z,15.52
2023-05-08T16:12:34.540Z,14.10
2023-05-08T16:15:02.389Z,15.02
2023-05-08T16:17:30.265Z,15.77
2023-05-08T16:19:58.135Z,15.02
2023-05-08T16:22:26.068Z,14.43
2023-05-08T16:24:54.654Z,15.40
2023-05-08T16:27:23.847Z,14.20
2023-05-08T16:29:51.627Z,14.13
2023-05-08T16:32:19.421Z,12.35
2023-05-08T16:34:47.400Z,14.35
2023-05-08T16:37:15.134Z,14.07
2023-05-08T16:39:42.860Z,14.93
2023-05-08T16:42:10.734Z,14.43
2023-05-08T16:44:40.189Z,16.20
2023-05-08T16:47:08.044Z,14.32
2023-05-08T16:49:36.215Z,15.00
2023-05-08T16:52:04.026Z,13.88
2023-05-08T16:54:32.038Z,15.85
2023-05-08T16:57:00.025Z,14.65
2023-05-08T16:59:27.925Z,13.23
2023-05-08T17:01:57.127Z,13.77
2023-05-08T17:04:25.003Z,12.35
2023-05-08T17:06:53.050Z,12.32
2023-05-08T17:09:20.830Z,11.85
2023-05-08T17:11:48.581Z,11.63
2023-05-08T17:14:16.463Z,11.55
2023-05-08T17:16:44.450Z,11.55
2023-05-08T17:19:13.759Z,10.65
2023-05-08T17:21:41.600Z,11.35
2023-05-08T17:24:09.866Z,11.18
2023-05-08T17:26:37.682Z,11.18
2023-05-08T17:29:05.764Z,11.55
2023-05-08T17:31:33.544Z,12.15
2023-05-08T17:34:01.720Z,11.02
2023-05-08T17:36:31.013Z,11.10
2023-05-08T17:38:58.854Z,11.18
2023-05-08T17:41:26.601Z,12.10
2023-05-08T17:43:54.996Z,11.35
2023-05-08T17:46:23.039Z,12.30
2023-05-08T17:48:50.896Z,11.43
2023-05-08T17:51:18.872Z,13.80
2023-05-08T17:53:48.464Z,13.32
2023-05-08T17:56:20.313Z,14.38
2023-05-08T17:58:48.286Z,13.82
2023-05-08T18:01:16.108Z,12.35
2023-05-08T18:03:45.288Z,14.40
2023-05-08T18:06:16.103Z,14.07
2023-05-08T18:08:44.176Z,13.32
2023-05-08T18:11:21.234Z,12.25
2023-05-08T18:13:49.444Z,15.07
2023-05-08T18:16:19.099Z,15.00
2023-05-08T18:18:47.003Z,14.63
2023-05-08T18:21:15.074Z,16.20
2023-05-08T18:23:43.081Z,15.63
2023-05-08T18:26:15.035Z,14.70
2023-05-08T18:28:45.249Z,14.45
2023-05-08T18:31:13.845Z,14.13
2023-05-08T18:33:41.715Z,13.45
2023-05-08T18:36:09.520Z,15.82
2023-05-08T18:38:37.468Z,14.40
2023-05-08T18:41:07.163Z,13.35
2023-05-08T18:43:35.214Z,15.13
2023-05-08T18:46:12.241Z,13.63
2023-05-08T18:48:40.593Z,15.15
2023-05-08T18:51:08.419Z,14.35
2023-05-08T18:53:38.614Z,15.05
2023-05-08T18:56:07.235Z,16.30
2023-05-08T18:58:35.278Z,14.30
2023-05-08T19:01:03.122Z,14.93
2023-05-08T19:03:32.480Z,16.15
2023-05-08T19:06:00.309Z,13.65
2023-05-08T19:08:28.234Z,14.10
2023-05-08T19:10:56.098Z,14.73
2023-05-08T19:13:24.362Z,13.55
2023-05-08T19:15:54.567Z,14.05
2023-05-08T19:18:22.420Z,14.43
2023-05-08T19:20:51.552Z,14.75
2023-05-08T19:23:19.438Z,12.82
2023-05-08T19:25:47.272Z,12.93
2023-05-08T19:28:15.151Z,12.57
2023-05-08T19:30:42.972Z,12.93
2023-05-08T19:33:10.817Z,13.07
2023-05-08T19:35:38.699Z,13.07
2023-05-08T19:38:08.174Z,15.05
2023-05-08T19:40:48.038Z,14.93
2023-05-08T19:43:20.320Z,12.68
2023-05-08T19:45:48.323Z,13.35
2023-05-08T19:48:17.841Z,12.73
2023-05-08T19:50:46.260Z,12.57
2023-05-08T19:53:15.453Z,13.32
2023-05-08T19:55:43.237Z,12.35
2023-05-08T19:58:13.887Z,13.00
2023-05-08T20:00:41.860Z,11.90
2023-05-08T20:03:09.815Z,12.23
2023-05-08T20:05:37.757Z,12.88
2023-05-08T20:08:05.840Z,13.57
2023-05-08T20:10:35.241Z,13.23
2023-05-08T20:13:03.285Z,12.57
2023-05-08T20:15:31.166Z,13.32
2023-05-08T20:17:59.839Z,13.13
2023-05-08T20:20:29.769Z,13.60
2023-05-08T20:22:58.003Z,13.93
2023-05-08T20:25:25.915Z,14.90
2023-05-08T20:27:55.163Z,16.13
2023-05-08T20:30:23.838Z,15.75
2023-05-08T20:32:52.016Z,17.60
2023-05-08T20:35:20.053Z,18.85
2023-05-08T20:37:49.405Z,18.63
2023-05-08T20:40:17.405Z,17.38
2023-05-08T20:42:45.274Z,18.27
2023-05-08T20:45:14.551Z,19.48
2023-05-08T20:47:42.525Z,18.75
2023-05-08T20:50:10.773Z,18.25
2023-05-08T20:52:40.582Z,18.00
2023-05-08T20:55:10.404Z,16.02
2023-05-08T20:57:38.754Z,18.92
2023-05-08T21:00:08.458Z,17.35
2023-05-08T21:02:40.130Z,16.38
2023-05-08T21:05:08.529Z,18.48
2023-05-08T21:07:36.467Z,17.15
2023-05-08T21:10:05.618Z,17.85
2023-05-08T21:12:33.399Z,17.13
2023-05-08T21:15:01.710Z,17.85
2023-05-08T21:17:29.514Z,17.80
2023-05-08T21:19:58.851Z,18.10
2023-05-08T21:22:26.790Z,16.45
2023-05-08T21:24:54.596Z,18.48
2023-05-08T21:27:22.371Z,19.38
2023-05-08T21:29:50.124Z,19.40
2023-05-08T21:32:18.041Z,17.77
2023-05-08T21:34:45.872Z,17.58
2023-05-08T21:37:15.171Z,17.98
2023-05-08T21:39:43.034Z,17.67
2023-05-08T21:42:11.444Z,18.42
2023-05-08T21:44:39.209Z,19.30
2023-05-08T21:47:07.242Z,19.60
2023-05-08T21:49:34.974Z,19.17
2023-05-08T21:52:02.760Z,19.15
2023-05-08T21:54:32.093Z,18.90
2023-05-08T21:56:59.844Z,21.38
2023-05-08T21:59:27.621Z,18.75
2023-05-08T22:01:55.547Z,19.05
2023-05-08T22:04:23.412Z,18.13
2023-05-08T22:06:51.303Z,18.10
2023-05-08T22:09:19.273Z,18.67
2023-05-08T22:11:48.553Z,16.92
2023-05-08T22:14:16.872Z,18.58
2023-05-08T22:16:44.751Z,17.20
2023-05-08T22:19:12.546Z,17.98
2023-05-08T22:21:40.372Z,17.35
2023-05-08T22:24:09.100Z,17.15
2023-05-08T22:26:36.898Z,16.27
2023-05-08T22:29:08.272Z,17.58
2023-05-08T22:31:36.270Z,16.50
2023-05-08T22:34:04.263Z,15.00
2023-05-08T22:36:32.646Z,16.25
2023-05-08T22:39:01.109Z,16.27
2023-05-08T22:41:30.898Z,15.35
2023-05-08T22:43:58.842Z,14.98
2023-05-08T22:46:28.272Z,13.38
2023-05-08T22:48:56.181Z,14.43
2023-05-08T22:51:24.055Z,14.00
2023-05-08T22:53:52.170Z,13.50
2023-05-08T22:56:20.039Z,14.93
2023-05-08T22:58:48.175Z,13.80
2023-05-08T23:01:17.463Z,14.60
2023-05-08T23:03:47.336Z,13.80
2023-05-08T23:06:15.114Z,12.98
2023-05-08T23:08:42.954Z,13.18
2023-05-08T23:11:10.906Z,13.02
2023-05-08T23:13:38.708Z,14.25
2023-05-08T23:16:07.362Z,12.90
2023-05-08T23:18:35.217Z,13.40
2023-05-08T23:21:08.029Z,14.00
2023-05-08T23:23:36.331Z,12.80
2023-05-08T23:26:05.153Z,12.25
2023-05-08T23:28:33.994Z,12.07
2023-05-08T23:31:02.140Z,13.18
2023-05-08T23:33:29.976Z,11.93
2023-05-08T23:35:58.952Z,12.15
2023-05-08T23:38:28.130Z,12.63
2023-05-08T23:40:56.082Z,12.52
2023-05-08T23:43:23.849Z,12.05
2023-05-08T23:45:51.820Z,11.88
2023-05-08T23:48:19.622Z,11.18
2023-05-08T23:50:48.215Z,12.95
2023-05-08T23:53:16.598Z,12.48
2023-05-08T23:55:46.749Z,13.50
2023-05-08T23:58:14.523Z,11.35
